sensor_id;sensor_type;location;lat;lon;timestamp;temperature;humidity
5492;DHT22;2768;53.540;10.224;2022-10-29T00:05:10;18.00;99.90
5492;DHT22;2768;53.540;10.224;2022-10-29T00:11:05;17.90;99.90
5492;DHT22;2768;53.540;10.224;2022-10-29T00:17:00;17.90;99.90
5492;DHT22;2768;53.540;10.224;2022-10-29T00:22:53;17.80;99.90
5492;DHT22;2768;53.540;10.224;2022-10-29T00:28:46;17.80;99.90
5492;DHT22;2768;53.540;10.224;2022-10-29T00:34:41;17.70;99.90
5492;DHT22;2768;53.540;10.224;2022-10-29T00:40:35;17.90;99.90
5492;DHT22;2768;53.540;10.224;2022-10-29T00:46:31;17.90;99.90
5492;DHT22;2768;53.540;10.224;2022-10-29T00:52:29;18.10;99.90
5492;DHT22;2768;53.540;10.224;2022-10-29T00:58:24;18.20;99.90
5492;DHT22;2768;53.540;10.224;2022-10-29T01:04:18;17.90;99.90
5492;DHT22;2768;53.540;10.224;2022-10-29T01:10:15;17.80;99.90
5492;DHT22;2768;53.540;10.224;2022-10-29T01:16:16;17.80;99.90
5492;DHT22;2768;53.540;10.224;2022-10-29T01:22:15;17.70;99.90
5492;DHT22;2768;53.540;10.224;2022-10-29T01:28:23;17.70;99.90
5492;DHT22;2768;53.540;10.224;2022-10-29T01:34:26;17.60;99.90
5492;DHT22;2768;53.540;10.224;2022-10-29T01:40:23;17.70;99.90
5492;DHT22;2768;53.540;10.224;2022-10-29T01:46:20;17.60;99.90
5492;DHT22;2768;53.540;10.224;2022-10-29T01:52:18;17.50;99.90
5492;DHT22;2768;53.540;10.224;2022-10-29T01:58:12;17.30;99.90
5492;DHT22;2768;53.540;10.224;2022-10-29T02:04:25;17.30;99.90
5492;DHT22;2768;53.540;10.224;2022-10-29T02:10:27;17.30;99.90
5492;DHT22;2768;53.540;10.224;2022-10-29T02:16:24;17.20;99.90
5492;DHT22;2768;53.540;10.224;2022-10-29T02:22:18;17.20;99.90
5492;DHT22;2768;53.540;10.224;2022-10-29T02:28:12;17.30;99.90
5492;DHT22;2768;53.540;10.224;2022-10-29T02:34:05;17.40;99.90
5492;DHT22;2768;53.540;10.224;2022-10-29T02:39:58;17.40;99.90
5492;DHT22;2768;53.540;10.224;2022-10-29T02:46:14;17.40;99.90
5492;DHT22;2768;53.540;10.224;2022-10-29T02:52:07;17.40;99.90
5492;DHT22;2768;53.540;10.224;2022-10-29T02:58:00;17.30;99.90
5492;DHT22;2768;53.540;10.224;2022-10-29T03:03:55;17.20;99.90
5492;DHT22;2768;53.540;10.224;2022-10-29T03:09:48;17.40;99.90
5492;DHT22;2768;53.540;10.224;2022-10-29T03:15:43;17.50;99.90
5492;DHT22;2768;53.540;10.224;2022-10-29T03:21:38;17.40;99.90
5492;DHT22;2768;53.540;10.224;2022-10-29T03:27:31;17.60;99.90
5492;DHT22;2768;53.540;10.224;2022-10-29T03:33:25;17.80;99.90
5492;DHT22;2768;53.540;10.224;2022-10-29T03:39:20;17.60;99.90
5492;DHT22;2768;53.540;10.224;2022-10-29T03:45:13;17.70;99.90
5492;DHT22;2768;53.540;10.224;2022-10-29T03:51:06;17.70;99.90
5492;DHT22;2768;53.540;10.224;2022-10-29T03:57:01;17.50;99.90
5492;DHT22;2768;53.540;10.224;2022-10-29T04:02:54;17.40;99.90
5492;DHT22;2768;53.540;10.224;2022-10-29T04:08:48;17.40;99.90
5492;DHT22;2768;53.540;10.224;2022-10-29T04:14:43;17.40;99.90
5492;DHT22;2768;53.540;10.224;2022-10-29T04:20:38;17.50;99.90
5492;DHT22;2768;53.540;10.224;2022-10-29T04:26:52;17.60;99.90
5492;DHT22;2768;53.540;10.224;2022-10-29T04:33:07;17.70;99.90
5492;DHT22;2768;53.540;10.224;2022-10-29T04:39:00;17.70;99.90
5492;DHT22;2768;53.540;10.224;2022-10-29T04:44:54;17.80;99.90
5492;DHT22;2768;53.540;10.224;2022-10-29T04:50:48;17.70;99.90
5492;DHT22;2768;53.540;10.224;2022-10-29T04:56:41;17.70;99.90
5492;DHT22;2768;53.540;10.224;2022-10-29T05:02:35;17.70;99.90
5492;DHT22;2768;53.540;10.224;2022-10-29T05:08:30;17.70;99.90
5492;DHT22;2768;53.540;10.224;2022-10-29T05:14:23;17.70;99.90
5492;DHT22;2768;53.540;10.224;2022-10-29T05:20:16;17.60;99.90
5492;DHT22;2768;53.540;10.224;2022-10-29T05:26:11;17.40;99.90
5492;DHT22;2768;53.540;10.224;2022-10-29T05:32:04;17.30;99.90
5492;DHT22;2768;53.540;10.224;2022-10-29T05:37:57;17.20;99.90
5492;DHT22;2768;53.540;10.224;2022-10-29T05:43:53;17.00;99.90
5492;DHT22;2768;53.540;10.224;2022-10-29T05:49:46;17.10;99.90
5492;DHT22;2768;53.540;10.224;2022-10-29T05:55:40;17.30;99.90
5492;DHT22;2768;53.540;10.224;2022-10-29T06:01:35;17.30;99.90
5492;DHT22;2768;53.540;10.224;2022-10-29T06:07:29;17.40;99.90
5492;DHT22;2768;53.540;10.224;2022-10-29T06:13:22;17.30;99.90
5492;DHT22;2768;53.540;10.224;2022-10-29T06:19:16;17.20;99.90
5492;DHT22;2768;53.540;10.224;2022-10-29T06:25:10;17.00;99.90
5492;DHT22;2768;53.540;10.224;2022-10-29T06:31:03;17.10;99.90
5492;DHT22;2768;53.540;10.224;2022-10-29T06:36:58;17.20;99.90
5492;DHT22;2768;53.540;10.224;2022-10-29T06:42:57;17.20;99.90
5492;DHT22;2768;53.540;10.224;2022-10-29T06:48:51;17.20;99.90
5492;DHT22;2768;53.540;10.224;2022-10-29T06:54:46;17.20;99.90
5492;DHT22;2768;53.540;10.224;2022-10-29T07:00:39;17.20;99.90
5492;DHT22;2768;53.540;10.224;2022-10-29T07:06:33;17.20;99.90
5492;DHT22;2768;53.540;10.224;2022-10-29T07:12:28;17.30;99.90
5492;DHT22;2768;53.540;10.224;2022-10-29T07:18:21;17.20;99.90
5492;DHT22;2768;53.540;10.224;2022-10-29T07:24:14;17.20;99.90
5492;DHT22;2768;53.540;10.224;2022-10-29T07:30:10;17.20;99.90
5492;DHT22;2768;53.540;10.224;2022-10-29T07:36:04;17.20;99.90
5492;DHT22;2768;53.540;10.224;2022-10-29T07:41:57;17.10;99.90
5492;DHT22;2768;53.540;10.224;2022-10-29T07:47:58;17.10;99.90
5492;DHT22;2768;53.540;10.224;2022-10-29T07:53:54;16.90;99.90
5492;DHT22;2768;53.540;10.224;2022-10-29T07:59:47;17.10;99.90
5492;DHT22;2768;53.540;10.224;2022-10-29T08:05:42;17.00;99.90
5492;DHT22;2768;53.540;10.224;2022-10-29T08:11:37;16.70;99.90
5492;DHT22;2768;53.540;10.224;2022-10-29T08:17:30;16.60;99.90
5492;DHT22;2768;53.540;10.224;2022-10-29T08:23:31;16.30;99.90
5492;DHT22;2768;53.540;10.224;2022-10-29T08:29:24;16.40;99.90
5492;DHT22;2768;53.540;10.224;2022-10-29T08:35:19;16.40;99.90
5492;DHT22;2768;53.540;10.224;2022-10-29T08:41:23;16.50;99.90
5492;DHT22;2768;53.540;10.224;2022-10-29T08:47:22;16.60;99.90
5492;DHT22;2768;53.540;10.224;2022-10-29T08:53:19;16.80;99.90
5492;DHT22;2768;53.540;10.224;2022-10-29T08:59:18;16.80;99.90
5492;DHT22;2768;53.540;10.224;2022-10-29T09:05:13;16.40;99.90
5492;DHT22;2768;53.540;10.224;2022-10-29T09:11:16;16.60;99.90
5492;DHT22;2768;53.540;10.224;2022-10-29T09:17:23;16.70;99.90
5492;DHT22;2768;53.540;10.224;2022-10-29T09:23:27;16.60;99.90
5492;DHT22;2768;53.540;10.224;2022-10-29T09:29:41;16.50;99.90
5492;DHT22;2768;53.540;10.224;2022-10-29T09:35:42;16.60;99.90
5492;DHT22;2768;53.540;10.224;2022-10-29T09:41:37;16.70;99.90
5492;DHT22;2768;53.540;10.224;2022-10-29T09:47:37;16.60;99.90
5492;DHT22;2768;53.540;10.224;2022-10-29T09:53:36;16.40;99.90
5492;DHT22;2768;53.540;10.224;2022-10-29T09:59:33;16.40;99.90
5492;DHT22;2768;53.540;10.224;2022-10-29T10:05:28;16.40;99.90
5492;DHT22;2768;53.540;10.224;2022-10-29T10:11:24;16.50;99.90
5492;DHT22;2768;53.540;10.224;2022-10-29T10:17:19;16.60;99.90
5492;DHT22;2768;53.540;10.224;2022-10-29T10:23:20;16.50;99.90
5492;DHT22;2768;53.540;10.224;2022-10-29T10:29:17;16.50;99.90
5492;DHT22;2768;53.540;10.224;2022-10-29T10:35:29;16.70;99.90
5492;DHT22;2768;53.540;10.224;2022-10-29T10:41:24;16.70;99.90
5492;DHT22;2768;53.540;10.224;2022-10-29T10:47:22;16.70;99.90
5492;DHT22;2768;53.540;10.224;2022-10-29T10:53:19;16.80;99.90
5492;DHT22;2768;53.540;10.224;2022-10-29T10:59:14;16.80;99.90
5492;DHT22;2768;53.540;10.224;2022-10-29T11:05:16;17.00;99.90
5492;DHT22;2768;53.540;10.224;2022-10-29T11:11:14;17.00;99.90
5492;DHT22;2768;53.540;10.224;2022-10-29T11:17:21;17.10;99.90
5492;DHT22;2768;53.540;10.224;2022-10-29T11:23:28;17.20;99.90
5492;DHT22;2768;53.540;10.224;2022-10-29T11:29:28;17.30;99.90
5492;DHT22;2768;53.540;10.224;2022-10-29T11:35:31;17.30;99.90
5492;DHT22;2768;53.540;10.224;2022-10-29T11:41:33;17.40;99.90
5492;DHT22;2768;53.540;10.224;2022-10-29T11:47:40;17.30;99.90
5492;DHT22;2768;53.540;10.224;2022-10-29T11:53:52;17.40;99.90
5492;DHT22;2768;53.540;10.224;2022-10-29T12:00:10;17.40;99.90
5492;DHT22;2768;53.540;10.224;2022-10-29T12:06:12;17.50;99.90
5492;DHT22;2768;53.540;10.224;2022-10-29T12:12:10;17.50;99.90
5492;DHT22;2768;53.540;10.224;2022-10-29T12:18:16;17.50;99.90
5492;DHT22;2768;53.540;10.224;2022-10-29T12:24:26;17.60;99.90
5492;DHT22;2768;53.540;10.224;2022-10-29T12:30:23;17.60;99.90
5492;DHT22;2768;53.540;10.224;2022-10-29T12:43:11;17.60;99.90
5492;DHT22;2768;53.540;10.224;2022-10-29T12:49:09;17.80;99.90
5492;DHT22;2768;53.540;10.224;2022-10-29T12:55:04;17.90;99.90
5492;DHT22;2768;53.540;10.224;2022-10-29T13:01:01;17.90;99.90
5492;DHT22;2768;53.540;10.224;2022-10-29T13:07:21;18.00;99.90
5492;DHT22;2768;53.540;10.224;2022-10-29T13:13:22;18.10;99.90
5492;DHT22;2768;53.540;10.224;2022-10-29T13:19:31;18.10;99.90
5492;DHT22;2768;53.540;10.224;2022-10-29T13:25:49;18.10;99.90
5492;DHT22;2768;53.540;10.224;2022-10-29T13:31:46;18.20;99.90
5492;DHT22;2768;53.540;10.224;2022-10-29T13:38:12;18.30;99.90
5492;DHT22;2768;53.540;10.224;2022-10-29T13:44:10;18.40;99.90
5492;DHT22;2768;53.540;10.224;2022-10-29T13:50:04;18.40;99.90
5492;DHT22;2768;53.540;10.224;2022-10-29T13:56:00;18.40;99.90
5492;DHT22;2768;53.540;10.224;2022-10-29T14:02:01;18.40;99.90
5492;DHT22;2768;53.540;10.224;2022-10-29T14:07:59;18.40;99.90
5492;DHT22;2768;53.540;10.224;2022-10-29T14:13:57;18.50;99.90
5492;DHT22;2768;53.540;10.224;2022-10-29T14:19:51;18.40;99.90
5492;DHT22;2768;53.540;10.224;2022-10-29T14:25:50;18.50;99.90
5492;DHT22;2768;53.540;10.224;2022-10-29T14:31:45;18.50;99.90
5492;DHT22;2768;53.540;10.224;2022-10-29T14:44:26;18.50;99.90
5492;DHT22;2768;53.540;10.224;2022-10-29T14:50:29;18.50;99.90
5492;DHT22;2768;53.540;10.224;2022-10-29T14:56:33;18.60;99.90
5492;DHT22;2768;53.540;10.224;2022-10-29T15:02:32;18.60;99.90
5492;DHT22;2768;53.540;10.224;2022-10-29T15:08:37;18.60;99.90
5492;DHT22;2768;53.540;10.224;2022-10-29T15:14:34;18.60;99.90
5492;DHT22;2768;53.540;10.224;2022-10-29T15:20:33;18.60;99.90
5492;DHT22;2768;53.540;10.224;2022-10-29T15:26:28;18.50;99.90
5492;DHT22;2768;53.540;10.224;2022-10-29T15:32:22;18.50;99.90
5492;DHT22;2768;53.540;10.224;2022-10-29T15:45:21;18.40;99.90
5492;DHT22;2768;53.540;10.224;2022-10-29T15:51:15;18.40;99.90
5492;DHT22;2768;53.540;10.224;2022-10-29T15:57:10;18.40;99.90
5492;DHT22;2768;53.540;10.224;2022-10-29T16:03:13;18.30;99.90
5492;DHT22;2768;53.540;10.224;2022-10-29T16:09:15;18.30;99.90
5492;DHT22;2768;53.540;10.224;2022-10-29T16:15:14;18.30;99.90
5492;DHT22;2768;53.540;10.224;2022-10-29T16:21:11;18.20;99.90
5492;DHT22;2768;53.540;10.224;2022-10-29T16:27:11;18.20;99.90
5492;DHT22;2768;53.540;10.224;2022-10-29T16:33:05;18.20;99.90
5492;DHT22;2768;53.540;10.224;2022-10-29T16:38:59;18.20;99.90
5492;DHT22;2768;53.540;10.224;2022-10-29T16:44:53;18.20;99.90
5492;DHT22;2768;53.540;10.224;2022-10-29T16:50:46;18.10;99.90
5492;DHT22;2768;53.540;10.224;2022-10-29T16:56:41;18.10;99.90
5492;DHT22;2768;53.540;10.224;2022-10-29T17:02:34;18.10;99.90
5492;DHT22;2768;53.540;10.224;2022-10-29T17:08:30;18.10;99.90
5492;DHT22;2768;53.540;10.224;2022-10-29T17:14:25;18.10;99.90
5492;DHT22;2768;53.540;10.224;2022-10-29T17:20:18;18.00;99.90
5492;DHT22;2768;53.540;10.224;2022-10-29T17:26:11;18.00;99.90
5492;DHT22;2768;53.540;10.224;2022-10-29T17:32:06;18.00;99.90
5492;DHT22;2768;53.540;10.224;2022-10-29T17:38:00;18.00;99.90
5492;DHT22;2768;53.540;10.224;2022-10-29T17:43:53;17.90;99.90
5492;DHT22;2768;53.540;10.224;2022-10-29T17:49:48;17.90;99.90
5492;DHT22;2768;53.540;10.224;2022-10-29T17:55:41;17.90;99.90
5492;DHT22;2768;53.540;10.224;2022-10-29T18:01:34;17.80;99.90
5492;DHT22;2768;53.540;10.224;2022-10-29T18:07:29;17.90;99.90
5492;DHT22;2768;53.540;10.224;2022-10-29T18:13:22;17.80;99.90
5492;DHT22;2768;53.540;10.224;2022-10-29T18:19:15;17.90;99.90
5492;DHT22;2768;53.540;10.224;2022-10-29T18:25:10;17.90;99.90
5492;DHT22;2768;53.540;10.224;2022-10-29T18:31:04;17.80;99.90
5492;DHT22;2768;53.540;10.224;2022-10-29T18:36:57;17.80;99.90
5492;DHT22;2768;53.540;10.224;2022-10-29T18:42:52;17.80;99.90
5492;DHT22;2768;53.540;10.224;2022-10-29T18:48:46;17.70;99.90
5492;DHT22;2768;53.540;10.224;2022-10-29T18:54:40;17.70;99.90
5492;DHT22;2768;53.540;10.224;2022-10-29T19:00:34;17.70;99.90
5492;DHT22;2768;53.540;10.224;2022-10-29T19:06:29;17.70;99.90
5492;DHT22;2768;53.540;10.224;2022-10-29T19:12:23;17.70;99.90
5492;DHT22;2768;53.540;10.224;2022-10-29T19:18:17;17.70;99.90
5492;DHT22;2768;53.540;10.224;2022-10-29T19:24:12;17.70;99.90
5492;DHT22;2768;53.540;10.224;2022-10-29T19:30:07;17.70;99.90
5492;DHT22;2768;53.540;10.224;2022-10-29T19:36:02;17.60;99.90
5492;DHT22;2768;53.540;10.224;2022-10-29T19:41:55;17.70;99.90
5492;DHT22;2768;53.540;10.224;2022-10-29T19:47:49;17.60;99.90
5492;DHT22;2768;53.540;10.224;2022-10-29T19:53:43;17.60;99.90
5492;DHT22;2768;53.540;10.224;2022-10-29T19:59:37;17.60;99.90
5492;DHT22;2768;53.540;10.224;2022-10-29T20:05:30;17.60;99.90
5492;DHT22;2768;53.540;10.224;2022-10-29T20:11:25;17.60;99.90
5492;DHT22;2768;53.540;10.224;2022-10-29T20:17:19;17.60;99.90
5492;DHT22;2768;53.540;10.224;2022-10-29T20:23:12;17.60;99.90
5492;DHT22;2768;53.540;10.224;2022-10-29T20:29:06;17.50;99.90
5492;DHT22;2768;53.540;10.224;2022-10-29T20:34:59;17.60;99.90
5492;DHT22;2768;53.540;10.224;2022-10-29T20:40:53;17.50;99.90
5492;DHT22;2768;53.540;10.224;2022-10-29T20:46:47;17.60;99.90
5492;DHT22;2768;53.540;10.224;2022-10-29T20:52:40;17.50;99.90
5492;DHT22;2768;53.540;10.224;2022-10-29T20:58:39;17.60;99.90
5492;DHT22;2768;53.540;10.224;2022-10-29T21:04:34;17.50;99.90
5492;DHT22;2768;53.540;10.224;2022-10-29T21:10:27;17.50;99.90
5492;DHT22;2768;53.540;10.224;2022-10-29T21:16:21;17.40;99.90
5492;DHT22;2768;53.540;10.224;2022-10-29T21:22:16;17.40;99.90
5492;DHT22;2768;53.540;10.224;2022-10-29T21:28:10;17.50;99.90
5492;DHT22;2768;53.540;10.224;2022-10-29T21:34:03;17.40;99.90
5492;DHT22;2768;53.540;10.224;2022-10-29T21:39:58;17.40;99.90
5492;DHT22;2768;53.540;10.224;2022-10-29T21:45:57;17.40;99.90
5492;DHT22;2768;53.540;10.224;2022-10-29T21:51:50;17.30;99.90
5492;DHT22;2768;53.540;10.224;2022-10-29T21:57:45;17.30;99.90
5492;DHT22;2768;53.540;10.224;2022-10-29T22:03:40;17.30;99.90
5492;DHT22;2768;53.540;10.224;2022-10-29T22:09:33;17.30;99.90
5492;DHT22;2768;53.540;10.224;2022-10-29T22:15:28;17.20;99.90
5492;DHT22;2768;53.540;10.224;2022-10-29T22:21:22;17.20;99.90
5492;DHT22;2768;53.540;10.224;2022-10-29T22:27:16;17.20;99.90
5492;DHT22;2768;53.540;10.224;2022-10-29T22:33:10;17.20;99.90
5492;DHT22;2768;53.540;10.224;2022-10-29T22:39:04;17.20;99.90
5492;DHT22;2768;53.540;10.224;2022-10-29T22:44:57;17.10;99.90
5492;DHT22;2768;53.540;10.224;2022-10-29T22:50:59;17.10;99.90
5492;DHT22;2768;53.540;10.224;2022-10-29T22:56:53;17.10;99.90
5492;DHT22;2768;53.540;10.224;2022-10-29T23:02:46;17.10;99.90
5492;DHT22;2768;53.540;10.224;2022-10-29T23:08:41;17.10;99.90
5492;DHT22;2768;53.540;10.224;2022-10-29T23:14:35;17.10;99.90
5492;DHT22;2768;53.540;10.224;2022-10-29T23:20:28;17.00;99.90
5492;DHT22;2768;53.540;10.224;2022-10-29T23:26:24;17.00;99.90
5492;DHT22;2768;53.540;10.224;2022-10-29T23:32:18;17.00;99.90
5492;DHT22;2768;53.540;10.224;2022-10-29T23:38:11;17.00;99.90
5492;DHT22;2768;53.540;10.224;2022-10-29T23:44:05;17.00;99.90
5492;DHT22;2768;53.540;10.224;2022-10-29T23:49:59;17.00;99.90
5492;DHT22;2768;53.540;10.224;2022-10-29T23:55:52;16.90;99.90
